sensor_id;sensor_type;location;lat;lon;timestamp;P1;durP1;ratioP1;P2;durP2;ratioP2
55015;SDS011;40919;43.236;21.590;2023-04-03T00:00:28;40.13;;;25.42;;
55015;SDS011;40919;43.236;21.590;2023-04-03T00:02:55;35.08;;;22.58;;
55015;SDS011;40919;43.236;21.590;2023-04-03T00:05:20;35.30;;;21.10;;
55015;SDS011;40919;43.236;21.590;2023-04-03T00:07:46;29.33;;;17.63;;
55015;SDS011;40919;43.236;21.590;2023-04-03T00:10:12;35.70;;;21.40;;
55015;SDS011;40919;43.236;21.590;2023-04-03T00:12:38;27.77;;;14.98;;
55015;SDS011;40919;43.236;21.590;2023-04-03T00:15:04;28.50;;;15.73;;
55015;SDS011;40919;43.236;21.590;2023-04-03T00:17:30;28.05;;;15.60;;
55015;SDS011;40919;43.236;21.590;2023-04-03T00:19:56;21.67;;;14.57;;
55015;SDS011;40919;43.236;21.590;2023-04-03T00:22:22;16.55;;;11.70;;
55015;SDS011;40919;43.236;21.590;2023-04-03T00:24:48;24.45;;;14.68;;
55015;SDS011;40919;43.236;21.590;2023-04-03T00:27:13;41.25;;;22.65;;
55015;SDS011;40919;43.236;21.590;2023-04-03T00:29:40;72.80;;;36.03;;
55015;SDS011;40919;43.236;21.590;2023-04-03T00:32:06;60.28;;;29.52;;
55015;SDS011;40919;43.236;21.590;2023-04-03T00:34:32;50.70;;;27.60;;
55015;SDS011;40919;43.236;21.590;2023-04-03T00:36:57;47.28;;;24.65;;
55015;SDS011;40919;43.236;21.590;2023-04-03T00:39:23;33.65;;;19.30;;
55015;SDS011;40919;43.236;21.590;2023-04-03T00:41:49;35.47;;;19.38;;
55015;SDS011;40919;43.236;21.590;2023-04-03T00:44:19;38.38;;;24.05;;
55015;SDS011;40919;43.236;21.590;2023-04-03T00:46:46;32.88;;;19.90;;
55015;SDS011;40919;43.236;21.590;2023-04-03T00:49:11;25.15;;;16.60;;
55015;SDS011;40919;43.236;21.590;2023-04-03T00:51:37;26.45;;;16.33;;
55015;SDS011;40919;43.236;21.590;2023-04-03T00:54:04;19.67;;;12.25;;
55015;SDS011;40919;43.236;21.590;2023-04-03T00:56:31;23.65;;;14.18;;
55015;SDS011;40919;43.236;21.590;2023-04-03T00:59:02;43.42;;;26.48;;
55015;SDS011;40919;43.236;21.590;2023-04-03T01:04:28;37.75;;;21.52;;
55015;SDS011;40919;43.236;21.590;2023-04-03T01:06:56;37.83;;;23.23;;
55015;SDS011;40919;43.236;21.590;2023-04-03T01:09:27;48.40;;;27.60;;
55015;SDS011;40919;43.236;21.590;2023-04-03T01:11:54;54.03;;;31.23;;
55015;SDS011;40919;43.236;21.590;2023-04-03T01:14:37;53.05;;;31.38;;
55015;SDS011;40919;43.236;21.590;2023-04-03T01:17:03;49.90;;;30.38;;
55015;SDS011;40919;43.236;21.590;2023-04-03T01:19:28;53.38;;;34.83;;
55015;SDS011;40919;43.236;21.590;2023-04-03T01:22:04;55.63;;;35.80;;
55015;SDS011;40919;43.236;21.590;2023-04-03T01:24:42;70.30;;;37.90;;
55015;SDS011;40919;43.236;21.590;2023-04-03T01:27:09;73.30;;;38.30;;
55015;SDS011;40919;43.236;21.590;2023-04-03T01:29:35;68.45;;;37.63;;
55015;SDS011;40919;43.236;21.590;2023-04-03T01:32:02;60.72;;;34.72;;
55015;SDS011;40919;43.236;21.590;2023-04-03T01:34:29;50.75;;;30.70;;
55015;SDS011;40919;43.236;21.590;2023-04-03T01:36:55;51.40;;;29.23;;
55015;SDS011;40919;43.236;21.590;2023-04-03T01:39:20;72.38;;;33.78;;
55015;SDS011;40919;43.236;21.590;2023-04-03T01:41:46;86.57;;;42.95;;
55015;SDS011;40919;43.236;21.590;2023-04-03T01:44:12;89.95;;;45.15;;
55015;SDS011;40919;43.236;21.590;2023-04-03T01:46:39;81.22;;;41.47;;
55015;SDS011;40919;43.236;21.590;2023-04-03T01:49:06;40.58;;;22.85;;
55015;SDS011;40919;43.236;21.590;2023-04-03T01:51:32;18.08;;;11.35;;
55015;SDS011;40919;43.236;21.590;2023-04-03T01:53:58;31.40;;;16.65;;
55015;SDS011;40919;43.236;21.590;2023-04-03T01:56:23;45.67;;;25.13;;
55015;SDS011;40919;43.236;21.590;2023-04-03T01:58:50;70.55;;;42.92;;
55015;SDS011;40919;43.236;21.590;2023-04-03T02:01:16;62.65;;;37.40;;
55015;SDS011;40919;43.236;21.590;2023-04-03T02:03:41;83.43;;;46.83;;
55015;SDS011;40919;43.236;21.590;2023-04-03T02:06:07;47.65;;;27.95;;
55015;SDS011;40919;43.236;21.590;2023-04-03T02:08:33;39.50;;;21.67;;
55015;SDS011;40919;43.236;21.590;2023-04-03T02:10:59;28.55;;;16.30;;
55015;SDS011;40919;43.236;21.590;2023-04-03T02:13:25;22.40;;;15.15;;
55015;SDS011;40919;43.236;21.590;2023-04-03T02:15:50;20.48;;;12.70;;
55015;SDS011;40919;43.236;21.590;2023-04-03T02:18:16;18.35;;;11.25;;
55015;SDS011;40919;43.236;21.590;2023-04-03T02:20:42;19.33;;;10.55;;
55015;SDS011;40919;43.236;21.590;2023-04-03T02:23:08;16.63;;;10.45;;
55015;SDS011;40919;43.236;21.590;2023-04-03T02:25:34;17.70;;;9.70;;
55015;SDS011;40919;43.236;21.590;2023-04-03T02:28:00;20.60;;;11.95;;
55015;SDS011;40919;43.236;21.590;2023-04-03T02:30:26;22.75;;;14.05;;
55015;SDS011;40919;43.236;21.590;2023-04-03T02:32:52;16.52;;;10.80;;
55015;SDS011;40919;43.236;21.590;2023-04-03T02:35:18;17.90;;;10.30;;
55015;SDS011;40919;43.236;21.590;2023-04-03T02:37:44;14.57;;;9.63;;
55015;SDS011;40919;43.236;21.590;2023-04-03T02:40:10;16.27;;;10.35;;
55015;SDS011;40919;43.236;21.590;2023-04-03T02:42:36;14.32;;;10.05;;
55015;SDS011;40919;43.236;21.590;2023-04-03T02:45:02;33.58;;;17.65;;
55015;SDS011;40919;43.236;21.590;2023-04-03T02:47:28;20.05;;;10.38;;
55015;SDS011;40919;43.236;21.590;2023-04-03T02:49:54;13.55;;;8.00;;
55015;SDS011;40919;43.236;21.590;2023-04-03T02:52:20;7.90;;;6.28;;
55015;SDS011;40919;43.236;21.590;2023-04-03T02:54:46;16.15;;;10.13;;
55015;SDS011;40919;43.236;21.590;2023-04-03T02:57:12;13.27;;;8.95;;
55015;SDS011;40919;43.236;21.590;2023-04-03T02:59:37;14.80;;;9.73;;
55015;SDS011;40919;43.236;21.590;2023-04-03T03:02:09;25.17;;;13.57;;
55015;SDS011;40919;43.236;21.590;2023-04-03T03:04:35;29.75;;;17.42;;
55015;SDS011;40919;43.236;21.590;2023-04-03T03:07:02;33.15;;;18.95;;
55015;SDS011;40919;43.236;21.590;2023-04-03T03:09:28;30.73;;;19.02;;
55015;SDS011;40919;43.236;21.590;2023-04-03T03:11:54;30.13;;;17.00;;
55015;SDS011;40919;43.236;21.590;2023-04-03T03:14:21;22.70;;;14.75;;
55015;SDS011;40919;43.236;21.590;2023-04-03T03:16:46;22.92;;;12.57;;
55015;SDS011;40919;43.236;21.590;2023-04-03T03:19:12;15.50;;;11.25;;
55015;SDS011;40919;43.236;21.590;2023-04-03T03:21:38;18.50;;;10.23;;
55015;SDS011;40919;43.236;21.590;2023-04-03T03:24:03;20.90;;;11.98;;
55015;SDS011;40919;43.236;21.590;2023-04-03T03:26:30;21.77;;;12.45;;
55015;SDS011;40919;43.236;21.590;2023-04-03T03:28:55;19.30;;;11.50;;
55015;SDS011;40919;43.236;21.590;2023-04-03T03:31:21;20.00;;;12.05;;
55015;SDS011;40919;43.236;21.590;2023-04-03T03:33:47;21.27;;;12.30;;
55015;SDS011;40919;43.236;21.590;2023-04-03T03:36:12;18.52;;;12.45;;
55015;SDS011;40919;43.236;21.590;2023-04-03T03:38:38;22.30;;;11.88;;
55015;SDS011;40919;43.236;21.590;2023-04-03T03:41:04;23.05;;;12.23;;
55015;SDS011;40919;43.236;21.590;2023-04-03T03:43:30;21.35;;;12.82;;
55015;SDS011;40919;43.236;21.590;2023-04-03T03:45:56;20.17;;;13.15;;
55015;SDS011;40919;43.236;21.590;2023-04-03T03:48:22;27.77;;;14.90;;
55015;SDS011;40919;43.236;21.590;2023-04-03T03:50:48;26.63;;;16.10;;
55015;SDS011;40919;43.236;21.590;2023-04-03T03:53:15;34.80;;;18.13;;
55015;SDS011;40919;43.236;21.590;2023-04-03T03:55:41;27.55;;;18.90;;
55015;SDS011;40919;43.236;21.590;2023-04-03T03:58:07;33.13;;;20.63;;
55015;SDS011;40919;43.236;21.590;2023-04-03T04:00:33;39.00;;;25.55;;
55015;SDS011;40919;43.236;21.590;2023-04-03T04:02:58;39.22;;;24.70;;
55015;SDS011;40919;43.236;21.590;2023-04-03T04:05:24;36.58;;;23.13;;
55015;SDS011;40919;43.236;21.590;2023-04-03T04:07:50;23.40;;;15.75;;
55015;SDS011;40919;43.236;21.590;2023-04-03T04:10:16;20.48;;;13.02;;
55015;SDS011;40919;43.236;21.590;2023-04-03T04:12:41;18.50;;;12.48;;
55015;SDS011;40919;43.236;21.590;2023-04-03T04:15:07;23.77;;;17.88;;
55015;SDS011;40919;43.236;21.590;2023-04-03T04:17:33;38.22;;;31.05;;
55015;SDS011;40919;43.236;21.590;2023-04-03T04:20:00;31.98;;;26.17;;
55015;SDS011;40919;43.236;21.590;2023-04-03T04:22:27;32.45;;;24.52;;
55015;SDS011;40919;43.236;21.590;2023-04-03T04:24:53;36.92;;;23.73;;
55015;SDS011;40919;43.236;21.590;2023-04-03T04:27:18;42.25;;;29.17;;
55015;SDS011;40919;43.236;21.590;2023-04-03T04:29:44;44.97;;;26.73;;
55015;SDS011;40919;43.236;21.590;2023-04-03T04:32:10;33.22;;;21.33;;
55015;SDS011;40919;43.236;21.590;2023-04-03T04:34:36;28.65;;;16.70;;
55015;SDS011;40919;43.236;21.590;2023-04-03T04:37:02;22.80;;;15.75;;
55015;SDS011;40919;43.236;21.590;2023-04-03T04:39:28;25.13;;;14.85;;
55015;SDS011;40919;43.236;21.590;2023-04-03T04:41:53;19.77;;;13.70;;
55015;SDS011;40919;43.236;21.590;2023-04-03T04:44:19;23.42;;;14.35;;
55015;SDS011;40919;43.236;21.590;2023-04-03T04:46:45;23.00;;;13.23;;
55015;SDS011;40919;43.236;21.590;2023-04-03T04:49:11;22.63;;;12.88;;
55015;SDS011;40919;43.236;21.590;2023-04-03T04:51:37;26.27;;;17.42;;
55015;SDS011;40919;43.236;21.590;2023-04-03T04:54:03;37.92;;;24.08;;
55015;SDS011;40919;43.236;21.590;2023-04-03T04:56:28;47.35;;;28.63;;
55015;SDS011;40919;43.236;21.590;2023-04-03T04:58:54;47.03;;;27.08;;
55015;SDS011;40919;43.236;21.590;2023-04-03T05:01:20;52.47;;;31.92;;
55015;SDS011;40919;43.236;21.590;2023-04-03T05:03:46;56.03;;;32.70;;
55015;SDS011;40919;43.236;21.590;2023-04-03T05:06:13;44.78;;;26.08;;
55015;SDS011;40919;43.236;21.590;2023-04-03T05:08:38;31.92;;;20.58;;
55015;SDS011;40919;43.236;21.590;2023-04-03T05:11:04;27.50;;;17.55;;
55015;SDS011;40919;43.236;21.590;2023-04-03T05:13:30;36.08;;;19.55;;
55015;SDS011;40919;43.236;21.590;2023-04-03T05:15:56;28.88;;;19.25;;
55015;SDS011;40919;43.236;21.590;2023-04-03T05:18:22;38.53;;;22.00;;
55015;SDS011;40919;43.236;21.590;2023-04-03T05:20:48;28.90;;;20.58;;
55015;SDS011;40919;43.236;21.590;2023-04-03T05:23:15;30.20;;;21.83;;
55015;SDS011;40919;43.236;21.590;2023-04-03T05:25:41;31.98;;;22.83;;
55015;SDS011;40919;43.236;21.590;2023-04-03T05:28:08;55.28;;;35.72;;
55015;SDS011;40919;43.236;21.590;2023-04-03T05:30:35;56.88;;;37.80;;
55015;SDS011;40919;43.236;21.590;2023-04-03T05:33:01;56.63;;;39.42;;
55015;SDS011;40919;43.236;21.590;2023-04-03T05:35:27;52.85;;;37.90;;
55015;SDS011;40919;43.236;21.590;2023-04-03T05:37:53;72.55;;;47.22;;
55015;SDS011;40919;43.236;21.590;2023-04-03T05:40:19;65.45;;;43.17;;
55015;SDS011;40919;43.236;21.590;2023-04-03T05:42:45;65.95;;;38.70;;
55015;SDS011;40919;43.236;21.590;2023-04-03T05:45:11;48.10;;;30.83;;
55015;SDS011;40919;43.236;21.590;2023-04-03T05:47:37;43.03;;;27.55;;
55015;SDS011;40919;43.236;21.590;2023-04-03T05:50:03;51.92;;;33.03;;
55015;SDS011;40919;43.236;21.590;2023-04-03T05:52:30;62.10;;;38.25;;
55015;SDS011;40919;43.236;21.590;2023-04-03T05:55:05;55.70;;;35.00;;
55015;SDS011;40919;43.236;21.590;2023-04-03T05:57:31;59.95;;;41.63;;
55015;SDS011;40919;43.236;21.590;2023-04-03T05:59:57;64.35;;;42.42;;
55015;SDS011;40919;43.236;21.590;2023-04-03T06:02:23;56.75;;;35.25;;
55015;SDS011;40919;43.236;21.590;2023-04-03T06:04:50;103.20;;;60.00;;
55015;SDS011;40919;43.236;21.590;2023-04-03T06:07:17;88.78;;;51.40;;
55015;SDS011;40919;43.236;21.590;2023-04-03T06:09:46;56.45;;;32.90;;
55015;SDS011;40919;43.236;21.590;2023-04-03T06:12:12;57.70;;;35.28;;
55015;SDS011;40919;43.236;21.590;2023-04-03T06:14:38;110.43;;;63.65;;
55015;SDS011;40919;43.236;21.590;2023-04-03T06:17:03;128.82;;;73.97;;
55015;SDS011;40919;43.236;21.590;2023-04-03T06:19:31;72.45;;;47.53;;
55015;SDS011;40919;43.236;21.590;2023-04-03T06:21:56;65.60;;;45.58;;
55015;SDS011;40919;43.236;21.590;2023-04-03T06:24:22;62.78;;;40.97;;
55015;SDS011;40919;43.236;21.590;2023-04-03T06:26:50;62.30;;;42.20;;
55015;SDS011;40919;43.236;21.590;2023-04-03T06:29:17;60.55;;;40.58;;
55015;SDS011;40919;43.236;21.590;2023-04-03T06:31:46;74.93;;;47.08;;
55015;SDS011;40919;43.236;21.590;2023-04-03T06:34:12;75.10;;;43.67;;
55015;SDS011;40919;43.236;21.590;2023-04-03T06:36:38;105.85;;;72.60;;
55015;SDS011;40919;43.236;21.590;2023-04-03T06:39:05;106.85;;;74.68;;
55015;SDS011;40919;43.236;21.590;2023-04-03T06:41:31;76.03;;;55.40;;
55015;SDS011;40919;43.236;21.590;2023-04-03T06:43:57;73.88;;;50.88;;
55015;SDS011;40919;43.236;21.590;2023-04-03T06:46:24;76.93;;;53.33;;
55015;SDS011;40919;43.236;21.590;2023-04-03T06:48:51;80.53;;;56.88;;
55015;SDS011;40919;43.236;21.590;2023-04-03T06:51:22;82.57;;;57.65;;
55015;SDS011;40919;43.236;21.590;2023-04-03T06:53:53;85.80;;;55.83;;
55015;SDS011;40919;43.236;21.590;2023-04-03T06:56:20;78.85;;;51.55;;
55015;SDS011;40919;43.236;21.590;2023-04-03T06:58:47;84.85;;;59.53;;
55015;SDS011;40919;43.236;21.590;2023-04-03T07:01:14;57.00;;;39.90;;
55015;SDS011;40919;43.236;21.590;2023-04-03T07:03:42;51.97;;;36.35;;
55015;SDS011;40919;43.236;21.590;2023-04-03T07:06:09;50.13;;;34.58;;
55015;SDS011;40919;43.236;21.590;2023-04-03T07:08:37;54.38;;;37.40;;
55015;SDS011;40919;43.236;21.590;2023-04-03T07:11:03;62.13;;;39.22;;
55015;SDS011;40919;43.236;21.590;2023-04-03T07:13:29;64.97;;;43.28;;
55015;SDS011;40919;43.236;21.590;2023-04-03T07:15:55;58.78;;;41.50;;
55015;SDS011;40919;43.236;21.590;2023-04-03T07:18:21;49.58;;;35.75;;
55015;SDS011;40919;43.236;21.590;2023-04-03T07:20:47;38.25;;;28.48;;
55015;SDS011;40919;43.236;21.590;2023-04-03T07:23:13;41.83;;;28.38;;
55015;SDS011;40919;43.236;21.590;2023-04-03T07:25:42;49.50;;;32.05;;
55015;SDS011;40919;43.236;21.590;2023-04-03T07:28:12;76.35;;;53.42;;
55015;SDS011;40919;43.236;21.590;2023-04-03T07:30:42;53.80;;;37.92;;
55015;SDS011;40919;43.236;21.590;2023-04-03T07:33:12;70.88;;;46.22;;
55015;SDS011;40919;43.236;21.590;2023-04-03T07:35:40;74.70;;;55.80;;
55015;SDS011;40919;43.236;21.590;2023-04-03T07:38:06;57.97;;;47.03;;
55015;SDS011;40919;43.236;21.590;2023-04-03T07:40:32;47.05;;;33.90;;
55015;SDS011;40919;43.236;21.590;2023-04-03T07:42:58;81.13;;;52.80;;
55015;SDS011;40919;43.236;21.590;2023-04-03T07:45:24;64.68;;;48.50;;
55015;SDS011;40919;43.236;21.590;2023-04-03T07:47:51;59.92;;;41.95;;
55015;SDS011;40919;43.236;21.590;2023-04-03T07:50:17;81.60;;;52.08;;
55015;SDS011;40919;43.236;21.590;2023-04-03T07:52:43;68.88;;;49.13;;
55015;SDS011;40919;43.236;21.590;2023-04-03T07:55:09;59.67;;;39.92;;
55015;SDS011;40919;43.236;21.590;2023-04-03T07:57:35;67.38;;;42.65;;
55015;SDS011;40919;43.236;21.590;2023-04-03T08:00:04;78.22;;;51.15;;
55015;SDS011;40919;43.236;21.590;2023-04-03T08:02:30;90.05;;;60.60;;
55015;SDS011;40919;43.236;21.590;2023-04-03T08:04:59;77.35;;;53.15;;
55015;SDS011;40919;43.236;21.590;2023-04-03T08:07:25;58.90;;;41.95;;
55015;SDS011;40919;43.236;21.590;2023-04-03T08:09:51;49.95;;;35.78;;
55015;SDS011;40919;43.236;21.590;2023-04-03T08:12:17;44.90;;;31.27;;
55015;SDS011;40919;43.236;21.590;2023-04-03T08:14:43;48.08;;;33.70;;
55015;SDS011;40919;43.236;21.590;2023-04-03T08:17:09;47.95;;;32.97;;
55015;SDS011;40919;43.236;21.590;2023-04-03T08:19:37;55.13;;;37.55;;
55015;SDS011;40919;43.236;21.590;2023-04-03T08:22:03;45.85;;;30.98;;
55015;SDS011;40919;43.236;21.590;2023-04-03T08:24:30;48.40;;;35.33;;
55015;SDS011;40919;43.236;21.590;2023-04-03T08:26:56;34.50;;;25.50;;
55015;SDS011;40919;43.236;21.590;2023-04-03T08:29:22;37.17;;;27.30;;
55015;SDS011;40919;43.236;21.590;2023-04-03T08:34:17;29.05;;;21.52;;
55015;SDS011;40919;43.236;21.590;2023-04-03T08:36:44;33.95;;;23.33;;
55015;SDS011;40919;43.236;21.590;2023-04-03T08:39:10;30.30;;;21.92;;
55015;SDS011;40919;43.236;21.590;2023-04-03T08:44:11;33.63;;;23.92;;
55015;SDS011;40919;43.236;21.590;2023-04-03T08:50:02;76.28;;;59.55;;
55015;SDS011;40919;43.236;21.590;2023-04-03T08:58:02;55.92;;;37.22;;
55015;SDS011;40919;43.236;21.590;2023-04-03T09:03:31;27.02;;;18.77;;
55015;SDS011;40919;43.236;21.590;2023-04-03T09:09:04;26.38;;;17.13;;
55015;SDS011;40919;43.236;21.590;2023-04-03T09:11:27;22.70;;;15.82;;
55015;SDS011;40919;43.236;21.590;2023-04-03T09:14:40;21.23;;;13.75;;
55015;SDS011;40919;43.236;21.590;2023-04-03T09:20:26;18.70;;;12.27;;
55015;SDS011;40919;43.236;21.590;2023-04-03T09:22:51;15.45;;;10.95;;
55015;SDS011;40919;43.236;21.590;2023-04-03T09:25:25;15.30;;;10.45;;
55015;SDS011;40919;43.236;21.590;2023-04-03T09:28:01;21.07;;;14.00;;
55015;SDS011;40919;43.236;21.590;2023-04-03T09:30:27;16.38;;;11.65;;
55015;SDS011;40919;43.236;21.590;2023-04-03T09:32:54;14.02;;;10.23;;
55015;SDS011;40919;43.236;21.590;2023-04-03T09:37:53;16.02;;;11.70;;
55015;SDS011;40919;43.236;21.590;2023-04-03T09:42:50;10.57;;;7.90;;
55015;SDS011;40919;43.236;21.590;2023-04-03T09:45:25;11.82;;;8.93;;
55015;SDS011;40919;43.236;21.590;2023-04-03T09:48:07;10.82;;;6.70;;
55015;SDS011;40919;43.236;21.590;2023-04-03T09:51:01;14.45;;;10.68;;
55015;SDS011;40919;43.236;21.590;2023-04-03T09:53:32;12.98;;;10.07;;
55015;SDS011;40919;43.236;21.590;2023-04-03T09:56:25;15.27;;;10.68;;
55015;SDS011;40919;43.236;21.590;2023-04-03T09:58:52;14.98;;;11.82;;
55015;SDS011;40919;43.236;21.590;2023-04-03T10:01:39;16.23;;;12.35;;
55015;SDS011;40919;43.236;21.590;2023-04-03T10:04:09;22.80;;;16.48;;
55015;SDS011;40919;43.236;21.590;2023-04-03T10:06:40;22.48;;;14.98;;
55015;SDS011;40919;43.236;21.590;2023-04-03T10:09:16;20.42;;;14.45;;
55015;SDS011;40919;43.236;21.590;2023-04-03T10:11:59;19.48;;;13.23;;
55015;SDS011;40919;43.236;21.590;2023-04-03T10:14:53;25.02;;;19.08;;
55015;SDS011;40919;43.236;21.590;2023-04-03T10:17:37;37.72;;;26.48;;
55015;SDS011;40919;43.236;21.590;2023-04-03T10:23:14;30.67;;;21.10;;
55015;SDS011;40919;43.236;21.590;2023-04-03T10:25:55;43.17;;;28.00;;
55015;SDS011;40919;43.236;21.590;2023-04-03T10:34:04;23.98;;;15.02;;
55015;SDS011;40919;43.236;21.590;2023-04-03T10:37:42;16.10;;;11.13;;
55015;SDS011;40919;43.236;21.590;2023-04-03T10:39:38;21.67;;;13.80;;
55015;SDS011;40919;43.236;21.590;2023-04-03T10:48:23;13.35;;;8.90;;
55015;SDS011;40919;43.236;21.590;2023-04-03T10:51:01;12.25;;;7.88;;
55015;SDS011;40919;43.236;21.590;2023-04-03T10:59:05;19.30;;;11.23;;
55015;SDS011;40919;43.236;21.590;2023-04-03T11:01:56;20.80;;;11.32;;
55015;SDS011;40919;43.236;21.590;2023-04-03T11:04:31;12.60;;;7.88;;
55015;SDS011;40919;43.236;21.590;2023-04-03T11:07:01;21.58;;;11.10;;
55015;SDS011;40919;43.236;21.590;2023-04-03T11:09:35;41.17;;;18.92;;
55015;SDS011;40919;43.236;21.590;2023-04-03T11:12:17;34.78;;;16.65;;
55015;SDS011;40919;43.236;21.590;2023-04-03T11:14:48;17.83;;;11.27;;
55015;SDS011;40919;43.236;21.590;2023-04-03T11:22:33;17.25;;;11.02;;
55015;SDS011;40919;43.236;21.590;2023-04-03T11:25:05;15.40;;;10.07;;
55015;SDS011;40919;43.236;21.590;2023-04-03T11:27:35;19.13;;;10.63;;
55015;SDS011;40919;43.236;21.590;2023-04-03T11:39:02;12.45;;;7.70;;
55015;SDS011;40919;43.236;21.590;2023-04-03T11:41:41;13.93;;;8.27;;
55015;SDS011;40919;43.236;21.590;2023-04-03T11:44:25;14.45;;;9.32;;
55015;SDS011;40919;43.236;21.590;2023-04-03T11:47:03;13.60;;;8.60;;
55015;SDS011;40919;43.236;21.590;2023-04-03T12:05:48;30.73;;;21.77;;
55015;SDS011;40919;43.236;21.590;2023-04-03T12:08:16;30.17;;;20.65;;
55015;SDS011;40919;43.236;21.590;2023-04-03T12:14:23;28.17;;;19.60;;
55015;SDS011;40919;43.236;21.590;2023-04-03T12:22:05;24.58;;;17.35;;
55015;SDS011;40919;43.236;21.590;2023-04-03T12:35:08;14.55;;;10.02;;
55015;SDS011;40919;43.236;21.590;2023-04-03T12:41:10;20.15;;;14.52;;
55015;SDS011;40919;43.236;21.590;2023-04-03T12:46:52;28.52;;;20.27;;
55015;SDS011;40919;43.236;21.590;2023-04-03T12:51:57;18.00;;;12.75;;
55015;SDS011;40919;43.236;21.590;2023-04-03T12:59:36;24.55;;;16.13;;
55015;SDS011;40919;43.236;21.590;2023-04-03T13:02:07;23.00;;;14.68;;
55015;SDS011;40919;43.236;21.590;2023-04-03T13:04:42;39.53;;;27.38;;
55015;SDS011;40919;43.236;21.590;2023-04-03T13:07:20;33.42;;;25.20;;
55015;SDS011;40919;43.236;21.590;2023-04-03T13:09:57;27.60;;;17.98;;
55015;SDS011;40919;43.236;21.590;2023-04-03T13:12:30;21.42;;;16.00;;
55015;SDS011;40919;43.236;21.590;2023-04-03T13:14:57;20.42;;;15.88;;
55015;SDS011;40919;43.236;21.590;2023-04-03T13:17:25;19.13;;;14.40;;
55015;SDS011;40919;43.236;21.590;2023-04-03T13:19:53;22.13;;;16.98;;
55015;SDS011;40919;43.236;21.590;2023-04-03T13:25:05;18.05;;;13.82;;
55015;SDS011;40919;43.236;21.590;2023-04-03T13:27:34;21.23;;;15.80;;
55015;SDS011;40919;43.236;21.590;2023-04-03T13:30:01;27.25;;;20.98;;
55015;SDS011;40919;43.236;21.590;2023-04-03T13:32:29;41.88;;;34.58;;
55015;SDS011;40919;43.236;21.590;2023-04-03T13:34:56;24.73;;;18.20;;
55015;SDS011;40919;43.236;21.590;2023-04-03T13:37:32;20.33;;;15.27;;
55015;SDS011;40919;43.236;21.590;2023-04-03T13:42:43;29.40;;;21.27;;
55015;SDS011;40919;43.236;21.590;2023-04-03T13:47:50;16.15;;;12.68;;
55015;SDS011;40919;43.236;21.590;2023-04-03T13:50:19;16.90;;;11.65;;
55015;SDS011;40919;43.236;21.590;2023-04-03T13:55:25;23.88;;;17.23;;
55015;SDS011;40919;43.236;21.590;2023-04-03T13:58:01;34.47;;;25.25;;
55015;SDS011;40919;43.236;21.590;2023-04-03T14:02:59;30.73;;;24.55;;
55015;SDS011;40919;43.236;21.590;2023-04-03T14:05:25;32.88;;;23.13;;
55015;SDS011;40919;43.236;21.590;2023-04-03T14:07:52;30.40;;;20.33;;
55015;SDS011;40919;43.236;21.590;2023-04-03T14:10:19;26.75;;;18.35;;
55015;SDS011;40919;43.236;21.590;2023-04-03T14:12:45;19.55;;;14.50;;
55015;SDS011;40919;43.236;21.590;2023-04-03T14:17:47;22.52;;;15.63;;
55015;SDS011;40919;43.236;21.590;2023-04-03T14:20:16;23.23;;;16.55;;
55015;SDS011;40919;43.236;21.590;2023-04-03T14:22:43;26.27;;;17.02;;
55015;SDS011;40919;43.236;21.590;2023-04-03T14:25:09;17.05;;;12.48;;
55015;SDS011;40919;43.236;21.590;2023-04-03T14:30:07;23.73;;;16.73;;
55015;SDS011;40919;43.236;21.590;2023-04-03T14:32:37;17.10;;;12.45;;
55015;SDS011;40919;43.236;21.590;2023-04-03T14:35:03;26.20;;;17.95;;
55015;SDS011;40919;43.236;21.590;2023-04-03T14:37:30;34.53;;;25.05;;
55015;SDS011;40919;43.236;21.590;2023-04-03T14:39:56;31.48;;;22.88;;
55015;SDS011;40919;43.236;21.590;2023-04-03T14:42:29;37.35;;;23.67;;
55015;SDS011;40919;43.236;21.590;2023-04-03T14:44:57;37.08;;;21.85;;
55015;SDS011;40919;43.236;21.590;2023-04-03T14:47:25;39.08;;;27.10;;
55015;SDS011;40919;43.236;21.590;2023-04-03T14:49:53;35.58;;;27.85;;
55015;SDS011;40919;43.236;21.590;2023-04-03T14:52:24;21.92;;;15.60;;
55015;SDS011;40919;43.236;21.590;2023-04-03T14:54:53;20.73;;;14.18;;
55015;SDS011;40919;43.236;21.590;2023-04-03T14:57:19;30.80;;;22.88;;
55015;SDS011;40919;43.236;21.590;2023-04-03T14:59:49;37.53;;;26.52;;
55015;SDS011;40919;43.236;21.590;2023-04-03T15:04:57;21.63;;;16.13;;
55015;SDS011;40919;43.236;21.590;2023-04-03T15:07:24;17.70;;;13.55;;
55015;SDS011;40919;43.236;21.590;2023-04-03T15:09:52;18.52;;;13.60;;
55015;SDS011;40919;43.236;21.590;2023-04-03T15:12:21;17.38;;;11.90;;
55015;SDS011;40919;43.236;21.590;2023-04-03T15:14:47;15.88;;;11.35;;
55015;SDS011;40919;43.236;21.590;2023-04-03T15:17:17;16.95;;;13.57;;
55015;SDS011;40919;43.236;21.590;2023-04-03T15:19:46;16.05;;;12.82;;
55015;SDS011;40919;43.236;21.590;2023-04-03T15:22:15;23.60;;;16.77;;
55015;SDS011;40919;43.236;21.590;2023-04-03T15:24:43;25.90;;;18.55;;
55015;SDS011;40919;43.236;21.590;2023-04-03T15:27:09;21.00;;;16.83;;
55015;SDS011;40919;43.236;21.590;2023-04-03T15:29:38;17.83;;;13.30;;
55015;SDS011;40919;43.236;21.590;2023-04-03T15:32:05;18.63;;;13.57;;
55015;SDS011;40919;43.236;21.590;2023-04-03T15:34:31;41.20;;;24.52;;
55015;SDS011;40919;43.236;21.590;2023-04-03T15:36:57;44.15;;;29.02;;
55015;SDS011;40919;43.236;21.590;2023-04-03T15:39:24;34.22;;;23.25;;
55015;SDS011;40919;43.236;21.590;2023-04-03T15:41:50;23.58;;;15.02;;
55015;SDS011;40919;43.236;21.590;2023-04-03T15:44:17;19.92;;;14.73;;
55015;SDS011;40919;43.236;21.590;2023-04-03T15:46:44;17.55;;;11.85;;
55015;SDS011;40919;43.236;21.590;2023-04-03T15:49:11;21.40;;;14.63;;
55015;SDS011;40919;43.236;21.590;2023-04-03T15:51:37;31.65;;;21.00;;
55015;SDS011;40919;43.236;21.590;2023-04-03T15:54:03;40.00;;;24.95;;
55015;SDS011;40919;43.236;21.590;2023-04-03T15:56:29;38.83;;;25.38;;
55015;SDS011;40919;43.236;21.590;2023-04-03T15:58:55;34.08;;;23.90;;
55015;SDS011;40919;43.236;21.590;2023-04-03T16:01:21;27.45;;;18.95;;
55015;SDS011;40919;43.236;21.590;2023-04-03T16:03:47;28.00;;;18.65;;
55015;SDS011;40919;43.236;21.590;2023-04-03T16:06:13;22.67;;;14.48;;
55015;SDS011;40919;43.236;21.590;2023-04-03T16:08:40;21.95;;;15.32;;
55015;SDS011;40919;43.236;21.590;2023-04-03T16:11:07;24.65;;;16.90;;
55015;SDS011;40919;43.236;21.590;2023-04-03T16:13:33;19.58;;;12.55;;
55015;SDS011;40919;43.236;21.590;2023-04-03T16:15:59;23.48;;;16.85;;
55015;SDS011;40919;43.236;21.590;2023-04-03T16:18:27;26.95;;;19.48;;
55015;SDS011;40919;43.236;21.590;2023-04-03T16:20:53;19.17;;;13.50;;
55015;SDS011;40919;43.236;21.590;2023-04-03T16:23:19;32.83;;;22.75;;
55015;SDS011;40919;43.236;21.590;2023-04-03T16:25:46;24.02;;;17.63;;
55015;SDS011;40919;43.236;21.590;2023-04-03T16:28:12;16.77;;;14.35;;
55015;SDS011;40919;43.236;21.590;2023-04-03T16:30:42;14.18;;;10.07;;